sensor_id;sensor_type;location;lat;lon;timestamp;temperature;humidity
8114;DHT22;4099;52.684;9.918;2024-01-06T00:03:49;2.80;99.90
8114;DHT22;4099;52.684;9.918;2024-01-06T00:08:52;2.80;99.90
8114;DHT22;4099;52.684;9.918;2024-01-06T00:13:55;2.80;99.90
8114;DHT22;4099;52.684;9.918;2024-01-06T00:18:57;2.80;99.90
8114;DHT22;4099;52.684;9.918;2024-01-06T00:24:01;2.70;99.90
8114;DHT22;4099;52.684;9.918;2024-01-06T00:29:03;2.80;99.90
8114;DHT22;4099;52.684;9.918;2024-01-06T00:34:05;2.80;99.90
8114;DHT22;4099;52.684;9.918;2024-01-06T00:39:08;2.90;99.90
8114;DHT22;4099;52.684;9.918;2024-01-06T00:44:09;2.80;99.90
8114;DHT22;4099;52.684;9.918;2024-01-06T00:49:11;2.80;99.90
8114;DHT22;4099;52.684;9.918;2024-01-06T00:54:14;2.80;99.90
8114;DHT22;4099;52.684;9.918;2024-01-06T00:59:16;2.80;99.90
8114;DHT22;4099;52.684;9.918;2024-01-06T01:04:18;2.70;99.90
8114;DHT22;4099;52.684;9.918;2024-01-06T01:09:21;2.80;99.90
8114;DHT22;4099;52.684;9.918;2024-01-06T01:14:22;2.80;99.90
8114;DHT22;4099;52.684;9.918;2024-01-06T01:19:24;2.80;99.90
8114;DHT22;4099;52.684;9.918;2024-01-06T01:24:27;2.80;99.90
8114;DHT22;4099;52.684;9.918;2024-01-06T01:29:29;2.80;99.90
8114;DHT22;4099;52.684;9.918;2024-01-06T01:34:31;2.80;99.90
8114;DHT22;4099;52.684;9.918;2024-01-06T01:39:34;2.90;99.90
8114;DHT22;4099;52.684;9.918;2024-01-06T01:44:35;2.90;99.90
8114;DHT22;4099;52.684;9.918;2024-01-06T01:49:38;2.90;99.90
8114;DHT22;4099;52.684;9.918;2024-01-06T01:54:42;2.80;99.90
8114;DHT22;4099;52.684;9.918;2024-01-06T01:59:44;2.80;99.90
8114;DHT22;4099;52.684;9.918;2024-01-06T02:04:47;2.80;99.90
8114;DHT22;4099;52.684;9.918;2024-01-06T02:09:50;2.80;99.90
8114;DHT22;4099;52.684;9.918;2024-01-06T02:14:52;2.80;99.90
8114;DHT22;4099;52.684;9.918;2024-01-06T02:19:54;2.80;99.90
8114;DHT22;4099;52.684;9.918;2024-01-06T02:24:58;2.80;99.90
8114;DHT22;4099;52.684;9.918;2024-01-06T02:30:00;2.80;99.90
8114;DHT22;4099;52.684;9.918;2024-01-06T02:35:02;2.70;99.90
8114;DHT22;4099;52.684;9.918;2024-01-06T02:40:06;2.60;99.90
8114;DHT22;4099;52.684;9.918;2024-01-06T02:45:09;2.70;99.90
8114;DHT22;4099;52.684;9.918;2024-01-06T02:50:10;2.70;99.90
8114;DHT22;4099;52.684;9.918;2024-01-06T02:55:14;2.70;99.90
8114;DHT22;4099;52.684;9.918;2024-01-06T03:00:16;2.70;99.90
8114;DHT22;4099;52.684;9.918;2024-01-06T03:05:18;2.70;99.90
8114;DHT22;4099;52.684;9.918;2024-01-06T03:10:21;2.70;99.90
8114;DHT22;4099;52.684;9.918;2024-01-06T03:15:23;2.70;99.90
8114;DHT22;4099;52.684;9.918;2024-01-06T03:20:24;2.70;99.90
8114;DHT22;4099;52.684;9.918;2024-01-06T03:25:27;2.60;99.90
8114;DHT22;4099;52.684;9.918;2024-01-06T03:30:29;2.60;99.90
8114;DHT22;4099;52.684;9.918;2024-01-06T03:35:31;2.60;99.90
8114;DHT22;4099;52.684;9.918;2024-01-06T03:40:34;2.60;99.90
8114;DHT22;4099;52.684;9.918;2024-01-06T03:45:35;2.50;99.90
8114;DHT22;4099;52.684;9.918;2024-01-06T03:50:37;2.60;99.90
8114;DHT22;4099;52.684;9.918;2024-01-06T03:55:43;2.50;99.90
8114;DHT22;4099;52.684;9.918;2024-01-06T04:00:45;2.60;99.90
8114;DHT22;4099;52.684;9.918;2024-01-06T04:05:46;2.60;99.90
8114;DHT22;4099;52.684;9.918;2024-01-06T04:10:49;2.60;99.90
8114;DHT22;4099;52.684;9.918;2024-01-06T04:15:51;2.60;99.90
8114;DHT22;4099;52.684;9.918;2024-01-06T04:20:53;2.50;99.90
8114;DHT22;4099;52.684;9.918;2024-01-06T04:25:56;2.50;99.90
8114;DHT22;4099;52.684;9.918;2024-01-06T04:30:58;2.60;99.90
8114;DHT22;4099;52.684;9.918;2024-01-06T04:36:00;2.60;99.90
8114;DHT22;4099;52.684;9.918;2024-01-06T04:41:03;2.60;99.90
8114;DHT22;4099;52.684;9.918;2024-01-06T04:46:05;2.50;99.90
8114;DHT22;4099;52.684;9.918;2024-01-06T04:51:07;2.60;99.90
8114;DHT22;4099;52.684;9.918;2024-01-06T04:56:11;2.60;99.90
8114;DHT22;4099;52.684;9.918;2024-01-06T05:01:13;2.70;99.90
8114;DHT22;4099;52.684;9.918;2024-01-06T05:06:15;2.60;99.90
8114;DHT22;4099;52.684;9.918;2024-01-06T05:11:18;2.50;99.90
8114;DHT22;4099;52.684;9.918;2024-01-06T05:16:20;2.50;99.90
8114;DHT22;4099;52.684;9.918;2024-01-06T05:21:21;2.50;99.90
8114;DHT22;4099;52.684;9.918;2024-01-06T05:26:25;2.50;99.90
8114;DHT22;4099;52.684;9.918;2024-01-06T05:31:26;2.50;99.90
8114;DHT22;4099;52.684;9.918;2024-01-06T05:36:28;2.50;99.90
8114;DHT22;4099;52.684;9.918;2024-01-06T05:41:37;2.40;99.90
8114;DHT22;4099;52.684;9.918;2024-01-06T05:46:39;2.30;99.90
8114;DHT22;4099;52.684;9.918;2024-01-06T05:51:44;2.50;99.90
8114;DHT22;4099;52.684;9.918;2024-01-06T05:56:47;2.50;99.90
8114;DHT22;4099;52.684;9.918;2024-01-06T06:01:48;2.50;99.90
8114;DHT22;4099;52.684;9.918;2024-01-06T06:06:50;2.40;99.90
8114;DHT22;4099;52.684;9.918;2024-01-06T06:11:53;2.50;99.90
8114;DHT22;4099;52.684;9.918;2024-01-06T06:16:55;2.40;99.90
8114;DHT22;4099;52.684;9.918;2024-01-06T06:21:58;2.50;99.90
8114;DHT22;4099;52.684;9.918;2024-01-06T06:27:01;2.50;99.90
8114;DHT22;4099;52.684;9.918;2024-01-06T06:32:03;2.50;99.90
8114;DHT22;4099;52.684;9.918;2024-01-06T06:37:05;2.50;99.90
8114;DHT22;4099;52.684;9.918;2024-01-06T06:42:08;2.40;99.90
8114;DHT22;4099;52.684;9.918;2024-01-06T06:47:09;2.40;99.90
8114;DHT22;4099;52.684;9.918;2024-01-06T06:52:11;2.30;99.90
8114;DHT22;4099;52.684;9.918;2024-01-06T06:57:15;2.40;99.90
8114;DHT22;4099;52.684;9.918;2024-01-06T07:02:17;2.40;99.90
8114;DHT22;4099;52.684;9.918;2024-01-06T07:07:18;2.40;99.90
8114;DHT22;4099;52.684;9.918;2024-01-06T07:12:21;2.40;99.90
8114;DHT22;4099;52.684;9.918;2024-01-06T07:17:23;2.30;99.90
8114;DHT22;4099;52.684;9.918;2024-01-06T07:22:25;2.30;99.90
8114;DHT22;4099;52.684;9.918;2024-01-06T07:27:28;2.20;99.90
8114;DHT22;4099;52.684;9.918;2024-01-06T07:32:31;2.20;99.90
8114;DHT22;4099;52.684;9.918;2024-01-06T07:37:32;2.20;99.90
8114;DHT22;4099;52.684;9.918;2024-01-06T07:42:35;2.30;99.90
8114;DHT22;4099;52.684;9.918;2024-01-06T07:47:37;2.20;99.90
8114;DHT22;4099;52.684;9.918;2024-01-06T07:52:39;2.30;99.90
8114;DHT22;4099;52.684;9.918;2024-01-06T07:57:42;2.20;99.90
8114;DHT22;4099;52.684;9.918;2024-01-06T08:02:44;2.20;99.90
8114;DHT22;4099;52.684;9.918;2024-01-06T08:07:46;2.20;99.90
8114;DHT22;4099;52.684;9.918;2024-01-06T08:12:49;2.20;99.90
8114;DHT22;4099;52.684;9.918;2024-01-06T08:17:51;2.30;99.90
8114;DHT22;4099;52.684;9.918;2024-01-06T08:22:53;2.10;99.90
8114;DHT22;4099;52.684;9.918;2024-01-06T08:27:56;2.20;99.90
8114;DHT22;4099;52.684;9.918;2024-01-06T08:32:58;2.20;99.90
8114;DHT22;4099;52.684;9.918;2024-01-06T08:38:00;2.20;99.90
8114;DHT22;4099;52.684;9.918;2024-01-06T08:43:03;2.10;99.90
8114;DHT22;4099;52.684;9.918;2024-01-06T08:48:06;2.20;99.90
8114;DHT22;4099;52.684;9.918;2024-01-06T08:53:07;2.10;99.90
8114;DHT22;4099;52.684;9.918;2024-01-06T08:58:10;2.20;99.90
8114;DHT22;4099;52.684;9.918;2024-01-06T09:03:12;2.20;99.90
8114;DHT22;4099;52.684;9.918;2024-01-06T09:08:14;2.30;99.90
8114;DHT22;4099;52.684;9.918;2024-01-06T09:13:17;2.20;99.90
8114;DHT22;4099;52.684;9.918;2024-01-06T09:18:19;2.10;99.90
8114;DHT22;4099;52.684;9.918;2024-01-06T09:23:20;2.10;99.90
8114;DHT22;4099;52.684;9.918;2024-01-06T09:28:23;2.10;99.90
8114;DHT22;4099;52.684;9.918;2024-01-06T09:33:25;2.10;99.90
8114;DHT22;4099;52.684;9.918;2024-01-06T09:38:27;2.20;99.90
8114;DHT22;4099;52.684;9.918;2024-01-06T09:43:30;2.10;99.90
8114;DHT22;4099;52.684;9.918;2024-01-06T09:48:37;2.20;99.90
8114;DHT22;4099;52.684;9.918;2024-01-06T09:53:46;2.20;99.90
8114;DHT22;4099;52.684;9.918;2024-01-06T09:58:52;2.30;99.90
8114;DHT22;4099;52.684;9.918;2024-01-06T10:03:54;2.20;99.90
8114;DHT22;4099;52.684;9.918;2024-01-06T10:08:56;2.20;99.90
8114;DHT22;4099;52.684;9.918;2024-01-06T10:13:59;2.20;99.90
8114;DHT22;4099;52.684;9.918;2024-01-06T10:19:01;2.10;99.90
8114;DHT22;4099;52.684;9.918;2024-01-06T10:24:03;2.10;99.90
8114;DHT22;4099;52.684;9.918;2024-01-06T10:29:06;2.00;99.90
8114;DHT22;4099;52.684;9.918;2024-01-06T10:34:08;2.10;99.90
8114;DHT22;4099;52.684;9.918;2024-01-06T10:39:11;2.20;99.90
8114;DHT22;4099;52.684;9.918;2024-01-06T10:44:17;2.20;99.90
8114;DHT22;4099;52.684;9.918;2024-01-06T10:49:20;2.20;99.90
8114;DHT22;4099;52.684;9.918;2024-01-06T10:54:24;2.20;99.90
8114;DHT22;4099;52.684;9.918;2024-01-06T10:59:30;2.20;99.90
8114;DHT22;4099;52.684;9.918;2024-01-06T11:04:34;2.10;99.90
8114;DHT22;4099;52.684;9.918;2024-01-06T11:09:39;2.20;99.90
8114;DHT22;4099;52.684;9.918;2024-01-06T11:14:46;2.10;99.90
8114;DHT22;4099;52.684;9.918;2024-01-06T11:19:48;2.10;99.90
8114;DHT22;4099;52.684;9.918;2024-01-06T11:24:56;2.00;99.90
8114;DHT22;4099;52.684;9.918;2024-01-06T11:30:01;2.10;99.90
8114;DHT22;4099;52.684;9.918;2024-01-06T11:35:06;2.10;99.90
8114;DHT22;4099;52.684;9.918;2024-01-06T11:40:10;2.10;99.90
8114;DHT22;4099;52.684;9.918;2024-01-06T11:45:15;2.10;99.90
8114;DHT22;4099;52.684;9.918;2024-01-06T11:50:17;2.10;99.90
8114;DHT22;4099;52.684;9.918;2024-01-06T11:55:19;1.90;99.90
8114;DHT22;4099;52.684;9.918;2024-01-06T12:00:22;1.90;99.90
8114;DHT22;4099;52.684;9.918;2024-01-06T12:05:24;1.80;99.90
8114;DHT22;4099;52.684;9.918;2024-01-06T12:10:28;1.90;99.90
8114;DHT22;4099;52.684;9.918;2024-01-06T12:15:32;1.90;99.90
8114;DHT22;4099;52.684;9.918;2024-01-06T12:20:34;2.00;99.90
8114;DHT22;4099;52.684;9.918;2024-01-06T12:25:36;2.00;99.90
8114;DHT22;4099;52.684;9.918;2024-01-06T12:30:41;1.90;99.90
8114;DHT22;4099;52.684;9.918;2024-01-06T12:35:42;2.00;99.90
8114;DHT22;4099;52.684;9.918;2024-01-06T12:40:46;1.90;99.90
8114;DHT22;4099;52.684;9.918;2024-01-06T12:45:49;1.90;99.90
8114;DHT22;4099;52.684;9.918;2024-01-06T12:50:53;1.90;99.90
8114;DHT22;4099;52.684;9.918;2024-01-06T12:55:54;1.70;99.90
8114;DHT22;4099;52.684;9.918;2024-01-06T13:00:57;1.80;99.90
8114;DHT22;4099;52.684;9.918;2024-01-06T13:06:00;1.90;99.90
8114;DHT22;4099;52.684;9.918;2024-01-06T13:11:02;1.90;99.90
8114;DHT22;4099;52.684;9.918;2024-01-06T13:16:05;1.70;99.90
8114;DHT22;4099;52.684;9.918;2024-01-06T13:21:07;1.70;99.90
8114;DHT22;4099;52.684;9.918;2024-01-06T13:26:09;1.70;99.90
8114;DHT22;4099;52.684;9.918;2024-01-06T13:31:12;1.80;99.90
8114;DHT22;4099;52.684;9.918;2024-01-06T13:36:14;1.80;99.90
8114;DHT22;4099;52.684;9.918;2024-01-06T13:41:18;1.80;99.90
8114;DHT22;4099;52.684;9.918;2024-01-06T13:46:21;1.80;99.90
8114;DHT22;4099;52.684;9.918;2024-01-06T13:51:23;1.90;99.90
8114;DHT22;4099;52.684;9.918;2024-01-06T13:56:25;1.80;99.90
8114;DHT22;4099;52.684;9.918;2024-01-06T14:01:28;1.70;99.90
8114;DHT22;4099;52.684;9.918;2024-01-06T14:06:30;1.60;99.90
8114;DHT22;4099;52.684;9.918;2024-01-06T14:11:32;1.60;99.90
8114;DHT22;4099;52.684;9.918;2024-01-06T14:16:36;1.50;99.90
8114;DHT22;4099;52.684;9.918;2024-01-06T14:21:38;1.40;99.90
8114;DHT22;4099;52.684;9.918;2024-01-06T14:26:40;1.50;99.90
8114;DHT22;4099;52.684;9.918;2024-01-06T14:31:44;1.40;99.90
8114;DHT22;4099;52.684;9.918;2024-01-06T14:36:45;1.40;99.90
8114;DHT22;4099;52.684;9.918;2024-01-06T14:41:49;1.40;99.90
8114;DHT22;4099;52.684;9.918;2024-01-06T14:46:53;1.40;99.90
8114;DHT22;4099;52.684;9.918;2024-01-06T14:51:55;1.30;99.90
8114;DHT22;4099;52.684;9.918;2024-01-06T14:56:57;1.30;99.90
8114;DHT22;4099;52.684;9.918;2024-01-06T15:02:00;1.10;99.90
8114;DHT22;4099;52.684;9.918;2024-01-06T15:07:02;1.10;99.90
8114;DHT22;4099;52.684;9.918;2024-01-06T15:12:05;1.20;99.90
8114;DHT22;4099;52.684;9.918;2024-01-06T15:17:08;1.20;99.90
8114;DHT22;4099;52.684;9.918;2024-01-06T15:22:10;1.20;99.90
8114;DHT22;4099;52.684;9.918;2024-01-06T15:27:12;1.20;99.90
8114;DHT22;4099;52.684;9.918;2024-01-06T15:32:15;0.90;99.90
8114;DHT22;4099;52.684;9.918;2024-01-06T15:37:17;0.90;99.90
8114;DHT22;4099;52.684;9.918;2024-01-06T15:42:19;1.00;99.90
8114;DHT22;4099;52.684;9.918;2024-01-06T15:47:22;1.00;99.90
8114;DHT22;4099;52.684;9.918;2024-01-06T15:52:23;1.00;99.90
8114;DHT22;4099;52.684;9.918;2024-01-06T15:57:26;1.00;99.90
8114;DHT22;4099;52.684;9.918;2024-01-06T16:02:29;0.90;99.90
8114;DHT22;4099;52.684;9.918;2024-01-06T16:07:32;0.80;99.90
8114;DHT22;4099;52.684;9.918;2024-01-06T16:12:34;0.80;99.90
8114;DHT22;4099;52.684;9.918;2024-01-06T16:17:37;0.80;99.90
8114;DHT22;4099;52.684;9.918;2024-01-06T16:22:39;0.80;99.90
8114;DHT22;4099;52.684;9.918;2024-01-06T16:27:40;0.80;99.90
8114;DHT22;4099;52.684;9.918;2024-01-06T16:32:43;0.80;99.90
8114;DHT22;4099;52.684;9.918;2024-01-06T16:37:45;0.80;99.90
8114;DHT22;4099;52.684;9.918;2024-01-06T16:42:49;0.80;99.90
8114;DHT22;4099;52.684;9.918;2024-01-06T16:47:53;0.70;99.90
8114;DHT22;4099;52.684;9.918;2024-01-06T16:52:56;0.80;99.90
8114;DHT22;4099;52.684;9.918;2024-01-06T16:57:57;0.70;99.90
8114;DHT22;4099;52.684;9.918;2024-01-06T17:03:02;0.80;99.90
8114;DHT22;4099;52.684;9.918;2024-01-06T17:08:04;0.70;99.90
8114;DHT22;4099;52.684;9.918;2024-01-06T17:13:06;0.80;99.90
8114;DHT22;4099;52.684;9.918;2024-01-06T17:18:09;0.80;99.90
8114;DHT22;4099;52.684;9.918;2024-01-06T17:23:11;0.70;99.90
8114;DHT22;4099;52.684;9.918;2024-01-06T17:28:13;0.80;99.90
8114;DHT22;4099;52.684;9.918;2024-01-06T17:33:16;0.70;99.90
8114;DHT22;4099;52.684;9.918;2024-01-06T17:38:17;0.70;99.90
8114;DHT22;4099;52.684;9.918;2024-01-06T17:43:19;0.70;99.90
8114;DHT22;4099;52.684;9.918;2024-01-06T17:48:22;0.50;99.90
8114;DHT22;4099;52.684;9.918;2024-01-06T17:53:24;0.60;99.90
8114;DHT22;4099;52.684;9.918;2024-01-06T17:58:26;0.60;99.90
8114;DHT22;4099;52.684;9.918;2024-01-06T18:03:29;0.60;99.90
8114;DHT22;4099;52.684;9.918;2024-01-06T18:08:30;0.50;99.90
8114;DHT22;4099;52.684;9.918;2024-01-06T18:13:32;0.60;99.90
8114;DHT22;4099;52.684;9.918;2024-01-06T18:18:35;0.50;99.90
8114;DHT22;4099;52.684;9.918;2024-01-06T18:23:37;0.40;99.90
8114;DHT22;4099;52.684;9.918;2024-01-06T18:28:38;0.50;99.90
8114;DHT22;4099;52.684;9.918;2024-01-06T18:33:41;0.40;99.90
8114;DHT22;4099;52.684;9.918;2024-01-06T18:38:43;0.20;99.90
8114;DHT22;4099;52.684;9.918;2024-01-06T18:43:45;0.30;99.90
8114;DHT22;4099;52.684;9.918;2024-01-06T18:48:48;0.30;99.90
8114;DHT22;4099;52.684;9.918;2024-01-06T18:53:50;0.30;99.90
8114;DHT22;4099;52.684;9.918;2024-01-06T18:58:51;0.40;99.90
8114;DHT22;4099;52.684;9.918;2024-01-06T19:03:54;0.40;99.90
8114;DHT22;4099;52.684;9.918;2024-01-06T19:08:56;0.30;99.90
8114;DHT22;4099;52.684;9.918;2024-01-06T19:13:57;0.20;99.90
8114;DHT22;4099;52.684;9.918;2024-01-06T19:19:00;0.30;99.90
8114;DHT22;4099;52.684;9.918;2024-01-06T19:24:04;0.30;99.90
8114;DHT22;4099;52.684;9.918;2024-01-06T19:29:06;0.20;99.90
8114;DHT22;4099;52.684;9.918;2024-01-06T19:34:09;0.00;99.90
8114;DHT22;4099;52.684;9.918;2024-01-06T19:39:10;0.10;99.90
8114;DHT22;4099;52.684;9.918;2024-01-06T19:44:13;0.00;99.90
8114;DHT22;4099;52.684;9.918;2024-01-06T19:49:18;0.00;99.90
8114;DHT22;4099;52.684;9.918;2024-01-06T19:54:20;0.00;99.90
8114;DHT22;4099;52.684;9.918;2024-01-06T19:59:22;-0.10;99.90
8114;DHT22;4099;52.684;9.918;2024-01-06T20:04:25;0.00;99.90
8114;DHT22;4099;52.684;9.918;2024-01-06T20:09:27;0.20;99.90
8114;DHT22;4099;52.684;9.918;2024-01-06T20:14:29;0.00;99.90
8114;DHT22;4099;52.684;9.918;2024-01-06T20:19:32;0.10;99.90
8114;DHT22;4099;52.684;9.918;2024-01-06T20:24:34;0.10;99.90
8114;DHT22;4099;52.684;9.918;2024-01-06T20:29:35;0.00;99.90
8114;DHT22;4099;52.684;9.918;2024-01-06T20:34:38;-0.10;99.90
8114;DHT22;4099;52.684;9.918;2024-01-06T20:39:40;-0.10;99.90
8114;DHT22;4099;52.684;9.918;2024-01-06T20:44:42;-0.10;99.90
8114;DHT22;4099;52.684;9.918;2024-01-06T20:49:45;0.00;99.90
8114;DHT22;4099;52.684;9.918;2024-01-06T20:54:47;-0.10;99.90
8114;DHT22;4099;52.684;9.918;2024-01-06T20:59:48;-0.10;99.90
8114;DHT22;4099;52.684;9.918;2024-01-06T21:04:52;-0.10;99.90
8114;DHT22;4099;52.684;9.918;2024-01-06T21:09:54;-0.10;99.90
8114;DHT22;4099;52.684;9.918;2024-01-06T21:14:55;-0.10;99.90
8114;DHT22;4099;52.684;9.918;2024-01-06T21:19:59;-0.10;99.90
8114;DHT22;4099;52.684;9.918;2024-01-06T21:25:02;-0.20;99.90
8114;DHT22;4099;52.684;9.918;2024-01-06T21:30:05;-0.10;99.90
8114;DHT22;4099;52.684;9.918;2024-01-06T21:35:09;-0.30;99.90
8114;DHT22;4099;52.684;9.918;2024-01-06T21:40:11;-0.30;99.90
8114;DHT22;4099;52.684;9.918;2024-01-06T21:45:13;-0.20;99.90
8114;DHT22;4099;52.684;9.918;2024-01-06T21:50:16;-0.20;99.90
8114;DHT22;4099;52.684;9.918;2024-01-06T21:55:18;-0.30;99.90
8114;DHT22;4099;52.684;9.918;2024-01-06T22:00:20;-0.40;99.90
8114;DHT22;4099;52.684;9.918;2024-01-06T22:05:24;-0.30;99.90
8114;DHT22;4099;52.684;9.918;2024-01-06T22:10:29;-0.40;99.90
8114;DHT22;4099;52.684;9.918;2024-01-06T22:15:32;-0.40;99.90
8114;DHT22;4099;52.684;9.918;2024-01-06T22:20:35;-0.30;99.90
8114;DHT22;4099;52.684;9.918;2024-01-06T22:25:37;-0.30;99.90
8114;DHT22;4099;52.684;9.918;2024-01-06T22:30:39;-0.40;99.90
8114;DHT22;4099;52.684;9.918;2024-01-06T22:35:42;-0.30;99.90
8114;DHT22;4099;52.684;9.918;2024-01-06T22:40:44;-0.40;99.90
8114;DHT22;4099;52.684;9.918;2024-01-06T22:45:46;-0.40;99.90
8114;DHT22;4099;52.684;9.918;2024-01-06T22:50:49;-0.40;99.90
8114;DHT22;4099;52.684;9.918;2024-01-06T22:55:51;-0.40;99.90
8114;DHT22;4099;52.684;9.918;2024-01-06T23:00:53;-0.40;99.90
8114;DHT22;4099;52.684;9.918;2024-01-06T23:05:56;-0.40;99.90
8114;DHT22;4099;52.684;9.918;2024-01-06T23:10:58;-0.50;99.90
8114;DHT22;4099;52.684;9.918;2024-01-06T23:15:59;-0.40;99.90
8114;DHT22;4099;52.684;9.918;2024-01-06T23:21:02;-0.50;99.90
8114;DHT22;4099;52.684;9.918;2024-01-06T23:26:06;-0.60;99.90
8114;DHT22;4099;52.684;9.918;2024-01-06T23:31:07;-0.50;99.90
8114;DHT22;4099;52.684;9.918;2024-01-06T23:36:10;-0.50;99.90
8114;DHT22;4099;52.684;9.918;2024-01-06T23:41:12;-0.50;99.90
8114;DHT22;4099;52.684;9.918;2024-01-06T23:46:17;-0.40;99.90
8114;DHT22;4099;52.684;9.918;2024-01-06T23:51:21;-0.50;99.90
8114;DHT22;4099;52.684;9.918;2024-01-06T23:56:23;-0.50;99.90
